Pagrindinis puslapis
METAR-TAF:

METAR-TAF

Oro uostai :

Rygos oro uostas

Ryga, Latvija

platuma: 56-55N, ilguma: 023-58E, Aukštis: 10 m

Dabartinis oras

Ataskaita buvo paskelbta 17 minutes, ne 03:20 UTC
Vėjas 8 kt iš Šiaurės/Šiaurės Vakarų
Temperatūra 9°C
Drėgmė 93%
Slėgis 1024 hPa
Matomumas 10 km arba daugiau
nėra debesų žemiau 1500 m ir nėra kamuolinių lietaus debesų

METAR: EVRA 290320Z 33008KT CAVOK 09/08 Q1024 NOSIG

Laikas: 06:37 (03:37 UTC)

Prognozė

Ataskaita buvo paskelbta 1 valandą ir 37 minutes, ne 02:00 UTC
Prognozė galioja nuo 29 metu 03 UTC su 30 metu 03 UTC
Vėjas 10 kt iš Šiaurės/Šiaurės Vakarų
Matomumas 10 km arba daugiau
nėra debesų žemiau 1500 m ir nėra kamuolinių lietaus debesų
Laikinai
nuo 29 metu 08 UTC su 29 metu 18 UTC
Vėjas 15 kt iš Šiaurės su gūsio iki 28 kt
Tikimybė 40% :
Laikinai
nuo 29 metu 10 UTC su 29 metu 16 UTC
Vėjas 15 kt iš Šiaurės su gūsio iki 30 kt

TAF: EVRA 290200Z 2903/3003 34010KT CAVOK TEMPO 2908/2918 35015G28KT PROB40 TEMPO 2910/2916 35015G30KT

Orai ataskaitas ir orų prognozės (METAR, TAF).

turimą stotys yra geltonos ir raudonos taškus žemėlapyje.

Perkelti pele per norėdami pamatyti stoties vardą.

Tada spustelėkite, norėdami matyti oro stebėjimo ir prognozės.

Norėdami pakeisti žemėlapį: spustelėkite ant žalios mygtukų su juodo kryžiaus žemyn,; žalią mygtuką su brūkšneliu, jei norite nutolinti; arba žalių rodyklių gretimoms žemėlapius.


METAR-TAF: